Terminal Aerodrome Forecast
Issued by NWS Brownsville, TX

Home | Current Version | Previous Version | Text Only | Print | Product List | Glossary On
Versions: 1 2 3 4 5 6 7 8 9 10 11 12 13 14
449
FTUS44 KBRO 192320
TAFBRO
TAF
KBRO 192320Z 2000/2024 11012KT P6SM FEW035
     FM200200 14006KT P6SM SKC
     FM201000 VRB03KT P6SM FEW020
     FM201500 16010KT P6SM SCT030 OVC060
     FM201900 13012G18KT P6SM BKN100=

USA.gov is the U.S. government's official web portal to all federal, state and local government web resources and services.